Time;durP1;ratioP1;P1;durP2;ratioP2;P2;SDS_P1;SDS_P2;PMS_P1;PMS_P2;Temp;Humidity;BMP_temperature;BMP_pressure;BME280_temperature;BME280_humidity;BME280_pressure;Samples;Min_cycle;Max_cycle;Signal;HPM_P1;HPM_P2
2022/09/15 00:00:04;;;;;;;3.57;1.10;;;14.30;99.90;;;;;;5044969;28;20198;-52
2022/09/15 00:02:31;;;;;;;4.20;1.50;;;14.30;99.90;;;;;;5040969;28;20778;-49
2022/09/15 00:04:59;;;;;;;2.73;1.20;;;14.30;99.90;;;;;;5039513;28;20219;-46
2022/09/15 00:07:27;;;;;;;5.90;1.30;;;14.30;99.90;;;;;;5041000;28;20196;-49
2022/09/15 00:09:53;;;;;;;0.80;0.70;;;14.20;99.90;;;;;;5044739;28;20198;-49
2022/09/15 00:12:42;;;;;;;3.20;1.37;;;14.20;99.90;;;;;;5035351;28;20305;-49
2022/09/15 00:15:13;;;;;;;1.63;1.20;;;14.10;99.90;;;;;;5043653;28;20221;-48
2022/09/15 00:17:41;;;;;;;4.40;1.43;;;14.00;99.90;;;;;;5042112;28;20184;-48
2022/09/15 00:20:10;;;;;;;5.40;2.17;;;13.90;99.90;;;;;;5044696;28;20278;-47
2022/09/15 00:22:38;;;;;;;2.67;1.63;;;13.90;99.90;;;;;;5042309;28;20207;-51
2022/09/15 00:25:06;;;;;;;2.20;1.40;;;13.80;99.90;;;;;;5043351;28;20219;-47
2022/09/15 00:27:33;;;;;;;1.77;1.40;;;13.80;99.90;;;;;;5026931;28;20202;-48
2022/09/15 00:30:00;;;;;;;2.97;1.60;;;13.70;99.90;;;;;;5044464;28;20192;-47
2022/09/15 00:32:27;;;;;;;3.70;1.60;;;13.80;99.90;;;;;;5040558;28;20226;-53
2022/09/15 00:34:54;;;;;;;2.60;1.73;;;13.70;99.90;;;;;;5043537;28;20222;-47
2022/09/15 00:37:22;;;;;;;3.87;1.73;;;13.70;99.90;;;;;;5044591;28;20206;-48
2022/09/15 00:39:49;;;;;;;3.13;2.07;;;13.70;99.90;;;;;;5063169;28;20210;-50
2022/09/15 00:42:17;;;;;;;5.67;1.70;;;13.60;99.90;;;;;;5039036;28;20215;-50
2022/09/15 00:44:55;;;;;;;4.47;1.70;;;13.60;99.90;;;;;;5041075;28;20245;-47
2022/09/15 00:47:24;;;;;;;5.87;1.60;;;13.60;99.90;;;;;;5041754;28;20191;-50
2022/09/15 00:49:55;;;;;;;3.33;1.67;;;13.70;99.90;;;;;;5043748;28;20278;-46
2022/09/15 00:52:28;;;;;;;5.43;1.70;;;13.70;99.90;;;;;;5036883;28;20203;-49
2022/09/15 00:55:01;;;;;;;5.03;1.80;;;13.70;99.90;;;;;;5042994;28;20211;-47
2022/09/15 00:57:33;;;;;;;3.13;1.93;;;13.70;99.90;;;;;;5027215;28;20289;-49
2022/09/15 01:00:04;;;;;;;3.20;1.70;;;13.70;99.90;;;;;;5039114;28;20195;-47
2022/09/15 01:02:37;;;;;;;2.57;1.53;;;13.70;99.90;;;;;;5039830;28;20188;-48
2022/09/15 01:05:09;;;;;;;3.07;1.87;;;13.70;99.90;;;;;;5042914;28;20710;-50
2022/09/15 01:07:41;;;;;;;4.27;1.83;;;13.70;99.90;;;;;;5045462;28;20229;-48
2022/09/15 01:10:13;;;;;;;5.00;1.90;;;13.70;99.90;;;;;;5063908;28;20862;-48
2022/09/15 01:12:40;;;;;;;7.13;2.10;;;13.70;99.90;;;;;;5043416;28;20203;-49
2022/09/15 01:15:08;;;;;;;5.10;2.20;;;13.70;99.90;;;;;;5042342;28;20214;-48
2022/09/15 01:17:46;;;;;;;4.73;2.07;;;13.70;99.90;;;;;;5039259;28;20196;-50
2022/09/15 01:20:37;;;;;;;2.90;2.27;;;13.70;99.90;;;;;;5041612;28;20566;-50
2022/09/15 01:23:30;;;;;;;3.77;1.90;;;13.70;99.90;;;;;;5043106;28;20245;-47
2022/09/15 01:26:33;;;;;;;3.30;1.97;;;13.70;99.90;;;;;;5023547;28;20211;-47
2022/09/15 01:29:34;;;;;;;1.97;1.87;;;13.80;99.90;;;;;;5007140;28;20215;-49
2022/09/15 01:35:00;;;;;;;3.07;1.90;;;13.80;99.90;;;;;;5042661;28;20701;-48
2022/09/15 01:37:34;;;;;;;3.77;2.17;;;13.80;99.90;;;;;;5039288;28;20223;-51
2022/09/15 01:40:03;;;;;;;4.97;2.07;;;13.80;99.90;;;;;;5039610;28;20203;-50
2022/09/15 01:42:32;;;;;;;3.00;2.17;;;13.80;99.90;;;;;;5039193;28;20202;-47
2022/09/15 01:45:04;;;;;;;3.93;2.37;;;13.80;99.90;;;;;;5029105;28;20642;-49
2022/09/15 01:47:34;;;;;;;2.70;2.40;;;13.80;99.90;;;;;;5038953;28;20195;-47
2022/09/15 01:50:08;;;;;;;4.93;2.43;;;13.80;99.90;;;;;;5043414;28;20191;-49
2022/09/15 01:52:37;;;;;;;2.73;2.10;;;13.80;99.90;;;;;;5040020;28;20190;-50
2022/09/15 01:55:10;;;;;;;5.57;2.53;;;13.80;99.90;;;;;;5047067;28;20331;-49
2022/09/15 01:57:37;;;;;;;3.77;2.23;;;13.80;99.90;;;;;;5063861;28;20183;-47
2022/09/15 02:00:07;;;;;;;4.43;2.00;;;13.80;99.90;;;;;;5038349;28;20235;-47
2022/09/15 02:02:37;;;;;;;2.47;2.00;;;13.80;99.90;;;;;;5043057;28;20230;-51
2022/09/15 02:05:10;;;;;;;3.10;2.00;;;13.80;99.90;;;;;;5046160;28;20684;-47
2022/09/15 02:07:43;;;;;;;5.43;2.03;;;13.90;99.90;;;;;;5043474;28;20249;-47
2022/09/15 02:10:17;;;;;;;4.30;2.20;;;13.90;99.90;;;;;;5046613;28;20195;-52
2022/09/15 02:12:49;;;;;;;2.27;1.63;;;13.90;99.90;;;;;;5060995;28;20201;-48
2022/09/15 02:15:22;;;;;;;3.90;2.17;;;13.90;99.90;;;;;;5041933;28;20219;-52
2022/09/15 02:17:53;;;;;;;4.00;1.70;;;13.90;99.90;;;;;;5045839;28;20207;-47
2022/09/15 02:20:24;;;;;;;3.27;2.27;;;13.90;99.90;;;;;;5044597;28;20270;-50
2022/09/15 02:22:56;;;;;;;2.83;2.03;;;13.90;99.90;;;;;;5045831;28;20192;-50
2022/09/15 02:25:27;;;;;;;3.83;1.90;;;13.90;99.90;;;;;;5043206;28;20220;-53
2022/09/15 02:27:59;;;;;;;2.50;2.30;;;13.90;99.90;;;;;;5054620;28;20230;-48
2022/09/15 02:30:31;;;;;;;3.20;2.23;;;13.90;99.90;;;;;;5048441;28;20211;-47
2022/09/15 02:33:02;;;;;;;5.97;2.43;;;13.90;99.90;;;;;;5041137;28;20192;-48
2022/09/15 02:35:34;;;;;;;3.77;2.30;;;13.80;99.90;;;;;;5041748;28;20213;-48
2022/09/15 02:38:04;;;;;;;2.97;2.30;;;13.80;99.90;;;;;;5046336;28;20191;-49
2022/09/15 02:40:37;;;;;;;2.70;2.10;;;13.80;99.90;;;;;;5042795;28;20270;-47
2022/09/15 02:43:04;;;;;;;4.23;2.60;;;13.80;99.90;;;;;;5042119;28;20215;-48
2022/09/15 02:45:32;;;;;;;4.17;2.00;;;13.70;99.90;;;;;;5041553;28;20211;-49
2022/09/15 02:47:59;;;;;;;2.90;1.77;;;13.80;99.90;;;;;;5033434;28;20235;-47
2022/09/15 02:50:27;;;;;;;3.00;1.70;;;13.80;99.90;;;;;;5042543;28;20199;-51
2022/09/15 02:52:54;;;;;;;4.57;1.93;;;13.70;99.90;;;;;;5045588;28;20187;-51
2022/09/15 02:55:22;;;;;;;5.33;2.73;;;13.70;99.90;;;;;;5042593;28;20215;-49
2022/09/15 02:57:49;;;;;;;5.60;2.00;;;13.80;99.90;;;;;;5052404;28;20211;-50
2022/09/15 03:00:18;;;;;;;4.30;2.33;;;13.80;99.90;;;;;;5064497;28;20194;-47
2022/09/15 03:02:48;;;;;;;4.50;1.93;;;13.80;99.90;;;;;;5038020;28;20203;-46
2022/09/15 03:05:17;;;;;;;2.17;1.97;;;13.80;99.90;;;;;;5042860;28;20258;-48
2022/09/15 03:07:44;;;;;;;9.10;2.20;;;13.80;99.90;;;;;;5043782;28;20187;-49
2022/09/15 03:10:13;;;;;;;2.07;1.93;;;13.80;99.90;;;;;;5045641;28;20278;-49
2022/09/15 03:12:40;;;;;;;4.00;2.10;;;13.80;99.90;;;;;;5038969;28;20285;-49
2022/09/15 03:15:09;;;;;;;4.03;2.20;;;13.80;99.90;;;;;;5044740;28;20214;-48
2022/09/15 03:17:37;;;;;;;4.73;2.13;;;13.80;99.90;;;;;;5027548;28;20288;-50
2022/09/15 03:20:07;;;;;;;3.93;1.87;;;13.80;99.90;;;;;;5044253;28;20621;-48
2022/09/15 03:22:34;;;;;;;6.33;2.07;;;13.80;99.90;;;;;;5040978;28;20725;-48
2022/09/15 03:25:03;;;;;;;3.33;2.30;;;13.80;99.90;;;;;;5044574;28;20226;-49
2022/09/15 03:27:30;;;;;;;8.33;2.37;;;13.80;99.90;;;;;;5037392;28;20202;-48
2022/09/15 03:29:57;;;;;;;3.80;2.30;;;13.80;99.90;;;;;;5045223;28;20603;-46
2022/09/15 03:32:24;;;;;;;3.80;2.00;;;13.80;99.90;;;;;;5030505;28;20248;-53
2022/09/15 03:34:51;;;;;;;9.80;2.20;;;13.80;99.90;;;;;;5041617;28;20218;-52
2022/09/15 03:37:19;;;;;;;2.37;2.10;;;13.70;99.90;;;;;;5043135;28;20191;-49
2022/09/15 03:39:47;;;;;;;5.00;2.37;;;13.80;99.90;;;;;;5044071;28;20187;-50
2022/09/15 03:42:14;;;;;;;5.33;2.13;;;13.80;99.90;;;;;;5043508;28;20187;-50
2022/09/15 03:44:41;;;;;;;6.90;2.10;;;13.80;99.90;;;;;;5056306;28;20223;-48
2022/09/15 03:47:08;;;;;;;5.43;2.03;;;13.80;99.90;;;;;;5065097;28;20187;-48
2022/09/15 03:49:35;;;;;;;5.50;3.00;;;13.70;99.90;;;;;;5035982;28;20921;-49
2022/09/15 03:52:02;;;;;;;5.03;2.43;;;13.70;99.90;;;;;;5044601;28;20202;-47
2022/09/15 03:54:31;;;;;;;3.07;2.17;;;13.70;99.90;;;;;;5039927;28;20211;-48
2022/09/15 03:56:58;;;;;;;5.37;2.03;;;13.70;99.90;;;;;;5045112;28;20207;-51
2022/09/15 03:59:25;;;;;;;2.83;1.53;;;13.70;99.90;;;;;;5045515;28;20699;-52
2022/09/15 04:01:52;;;;;;;5.67;1.70;;;13.70;99.90;;;;;;5049533;28;20208;-50
2022/09/15 04:04:19;;;;;;;8.13;2.90;;;13.60;99.90;;;;;;5034014;28;20719;-52
2022/09/15 04:06:45;;;;;;;6.17;3.10;;;13.60;99.90;;;;;;5038449;28;20211;-49
2022/09/15 04:09:13;;;;;;;6.30;3.00;;;13.60;99.90;;;;;;5043998;28;20264;-47
2022/09/15 04:11:41;;;;;;;4.60;2.07;;;13.60;99.90;;;;;;5043438;28;20192;-52
2022/09/15 04:14:08;;;;;;;3.93;2.30;;;13.60;99.90;;;;;;5038381;28;20608;-49
2022/09/15 04:16:35;;;;;;;5.97;2.40;;;13.60;99.90;;;;;;5048477;28;20214;-53
2022/09/15 04:19:01;;;;;;;4.13;1.23;;;13.60;99.90;;;;;;5041135;28;20286;-51
2022/09/15 04:21:30;;;;;;;6.63;2.33;;;13.60;99.90;;;;;;5031406;28;20289;-49
2022/09/15 04:23:57;;;;;;;5.33;1.50;;;13.60;99.90;;;;;;5034716;28;20242;-48
2022/09/15 04:26:27;;;;;;;2.60;2.07;;;13.60;99.90;;;;;;5043600;28;20203;-50
2022/09/15 04:28:55;;;;;;;3.97;1.63;;;13.60;99.90;;;;;;5043180;28;20211;-52
2022/09/15 04:31:23;;;;;;;4.37;2.03;;;13.60;99.90;;;;;;5045974;28;20196;-53
2022/09/15 04:33:52;;;;;;;4.63;2.77;;;13.60;99.90;;;;;;5052135;28;20179;-47
2022/09/15 04:36:21;;;;;;;4.27;2.00;;;13.60;99.90;;;;;;5039773;28;20686;-51
2022/09/15 04:38:49;;;;;;;5.17;2.07;;;13.60;99.90;;;;;;5044232;28;20191;-50
2022/09/15 04:41:17;;;;;;;3.70;2.00;;;13.50;99.90;;;;;;5043907;28;20761;-48
2022/09/15 04:43:44;;;;;;;7.37;2.07;;;13.50;99.90;;;;;;5044841;28;20191;-51
2022/09/15 04:46:14;;;;;;;5.17;1.80;;;13.50;99.90;;;;;;5052269;28;20647;-52
2022/09/15 04:48:41;;;;;;;4.13;1.90;;;13.50;99.90;;;;;;5059033;28;21020;-51
2022/09/15 04:51:11;;;;;;;5.57;1.90;;;13.60;99.90;;;;;;5037931;28;20211;-50
2022/09/15 04:53:38;;;;;;;3.87;1.67;;;13.60;99.90;;;;;;5026908;28;20199;-51
2022/09/15 04:56:06;;;;;;;3.03;1.80;;;13.60;99.90;;;;;;5048581;28;20187;-49
2022/09/15 04:58:37;;;;;;;2.53;1.70;;;13.60;99.90;;;;;;5041854;28;20192;-53
2022/09/15 05:01:08;;;;;;;5.80;1.70;;;13.60;99.90;;;;;;5043098;28;20207;-48
2022/09/15 05:03:37;;;;;;;5.47;1.90;;;13.60;99.90;;;;;;5048332;28;20777;-50
2022/09/15 05:06:05;;;;;;;4.10;2.03;;;13.60;99.90;;;;;;5058198;28;20305;-48
2022/09/15 05:08:32;;;;;;;5.40;1.57;;;13.50;99.90;;;;;;5027564;28;20222;-52
2022/09/15 05:11:00;;;;;;;2.60;1.10;;;13.50;99.90;;;;;;5044552;28;20187;-52
2022/09/15 05:13:26;;;;;;;3.47;1.40;;;13.50;99.90;;;;;;5042100;28;20278;-54
2022/09/15 05:15:54;;;;;;;4.63;1.50;;;13.50;99.90;;;;;;5055683;28;20304;-48
2022/09/15 05:18:21;;;;;;;4.13;1.83;;;13.60;99.90;;;;;;5049694;28;20198;-52
2022/09/15 05:20:49;;;;;;;4.07;1.23;;;13.60;99.90;;;;;;5056195;28;20951;-47
2022/09/15 05:23:16;;;;;;;4.37;2.43;;;13.60;99.90;;;;;;5028684;28;20595;-48
2022/09/15 05:25:43;;;;;;;7.27;1.97;;;13.60;99.90;;;;;;5044299;28;20209;-47
2022/09/15 05:28:10;;;;;;;4.10;1.30;;;13.60;99.90;;;;;;5063114;28;20660;-47
2022/09/15 05:30:39;;;;;;;4.27;1.50;;;13.60;99.90;;;;;;5038438;28;20786;-50
2022/09/15 05:33:06;;;;;;;4.10;1.20;;;13.60;99.90;;;;;;5039790;28;20203;-49
2022/09/15 05:35:33;;;;;;;1.90;1.40;;;13.60;99.90;;;;;;5049659;28;20207;-50
2022/09/15 05:38:02;;;;;;;1.93;1.20;;;13.60;99.90;;;;;;5030004;28;20215;-52
2022/09/15 05:40:29;;;;;;;3.83;1.60;;;13.60;99.90;;;;;;5046466;28;20257;-49
2022/09/15 05:42:56;;;;;;;3.67;1.50;;;13.60;99.90;;;;;;5043100;28;20683;-49
2022/09/15 05:45:23;;;;;;;8.43;1.20;;;13.60;99.90;;;;;;5050324;28;20280;-52
2022/09/15 05:47:49;;;;;;;5.07;1.37;;;13.60;99.90;;;;;;5047192;28;20900;-52
2022/09/15 05:50:16;;;;;;;5.27;1.27;;;13.60;99.90;;;;;;5059564;28;20191;-49
2022/09/15 05:52:43;;;;;;;4.77;2.00;;;13.60;99.90;;;;;;5036109;28;20190;-47
2022/09/15 05:55:11;;;;;;;3.40;1.17;;;13.60;99.90;;;;;;5029082;28;20273;-49
2022/09/15 05:57:38;;;;;;;4.83;1.73;;;13.50;99.90;;;;;;5039094;28;20187;-47
2022/09/15 06:00:06;;;;;;;3.23;1.23;;;13.50;99.90;;;;;;5043026;28;20207;-47
2022/09/15 06:02:38;;;;;;;5.47;1.70;;;13.50;99.90;;;;;;5039646;28;20191;-44
2022/09/15 06:05:06;;;;;;;4.90;1.13;;;13.50;99.90;;;;;;5050549;28;20705;-43
2022/09/15 06:07:33;;;;;;;4.73;1.40;;;13.60;99.90;;;;;;5059261;28;20187;-45
2022/09/15 06:10:01;;;;;;;2.40;1.30;;;13.60;99.90;;;;;;5035689;28;20206;-45
2022/09/15 06:12:28;;;;;;;4.47;1.30;;;13.60;99.90;;;;;;5040389;28;20237;-48
2022/09/15 06:14:56;;;;;;;6.03;1.53;;;13.60;99.90;;;;;;5041256;28;20210;-44
2022/09/15 06:17:22;;;;;;;4.73;1.27;;;13.70;99.90;;;;;;5041434;28;20204;-45
2022/09/15 06:19:49;;;;;;;5.40;1.50;;;13.70;99.90;;;;;;5047393;28;20282;-44
2022/09/15 06:22:16;;;;;;;4.73;1.20;;;13.70;99.90;;;;;;5047610;28;20302;-44
2022/09/15 06:24:43;;;;;;;4.10;1.20;;;13.70;99.90;;;;;;5025320;28;21874;-44
2022/09/15 06:27:10;;;;;;;4.37;1.03;;;13.70;99.90;;;;;;5042799;28;20195;-46
2022/09/15 06:29:38;;;;;;;4.37;1.50;;;13.80;99.90;;;;;;5019046;28;20196;-44
2022/09/15 06:32:05;;;;;;;3.63;1.47;;;13.80;99.90;;;;;;5033270;28;20210;-45
2022/09/15 06:34:32;;;;;;;6.33;1.40;;;13.80;99.90;;;;;;5040374;28;20231;-47
2022/09/15 06:36:59;;;;;;;3.07;1.30;;;13.80;99.90;;;;;;5058655;28;20568;-43
2022/09/15 06:39:26;;;;;;;3.87;1.20;;;13.80;99.90;;;;;;5040051;28;20206;-43
2022/09/15 06:41:53;;;;;;;5.60;1.70;;;13.80;99.90;;;;;;5034201;28;20202;-47
2022/09/15 06:44:21;;;;;;;5.43;1.60;;;13.80;99.90;;;;;;5044015;28;20237;-45
2022/09/15 06:46:49;;;;;;;2.87;1.13;;;13.90;99.90;;;;;;5050532;28;20953;-43
2022/09/15 06:49:16;;;;;;;6.00;1.20;;;13.90;99.90;;;;;;5026196;28;20196;-43
2022/09/15 06:51:43;;;;;;;3.80;1.20;;;13.90;99.90;;;;;;5038679;28;20676;-44
2022/09/15 06:54:10;;;;;;;5.20;1.03;;;13.90;99.90;;;;;;5040005;28;20302;-44
2022/09/15 06:56:37;;;;;;;2.37;1.17;;;14.00;99.90;;;;;;5031217;28;20199;-45
2022/09/15 06:59:04;;;;;;;3.73;1.33;;;14.00;99.90;;;;;;5043896;28;20203;-43
2022/09/15 07:01:31;;;;;;;4.10;1.20;;;14.00;99.90;;;;;;5054167;28;20201;-43
2022/09/15 07:04:01;;;;;;;5.53;1.13;;;14.00;99.90;;;;;;5045734;28;20350;-46
2022/09/15 07:06:30;;;;;;;4.83;0.90;;;14.10;99.90;;;;;;5056017;28;20246;-46
2022/09/15 07:08:58;;;;;;;3.53;1.20;;;14.20;99.90;;;;;;5056629;28;20202;-44
2022/09/15 07:11:26;;;;;;;8.50;1.50;;;14.20;99.90;;;;;;5045101;28;20285;-45
2022/09/15 07:13:53;;;;;;;4.37;1.33;;;14.30;99.90;;;;;;5034653;28;20246;-45
2022/09/15 07:16:21;;;;;;;7.53;1.37;;;14.40;99.90;;;;;;5054436;28;20194;-43
2022/09/15 07:18:48;;;;;;;5.00;1.80;;;14.50;99.90;;;;;;5054414;28;20205;-47
2022/09/15 07:21:19;;;;;;;8.07;1.00;;;14.50;99.90;;;;;;5056571;28;20217;-42
2022/09/15 07:23:47;;;;;;;6.80;1.53;;;14.70;99.90;;;;;;5038688;28;20190;-45
2022/09/15 07:26:16;;;;;;;4.77;1.60;;;14.80;99.90;;;;;;5047922;28;20257;-45
2022/09/15 07:28:45;;;;;;;2.83;0.93;;;14.80;99.90;;;;;;5029525;28;20593;-45
2022/09/15 07:31:15;;;;;;;4.93;1.03;;;14.80;99.90;;;;;;5049225;28;20199;-43
2022/09/15 07:33:42;;;;;;;4.23;1.73;;;14.80;99.90;;;;;;5054661;28;20191;-45
2022/09/15 07:36:10;;;;;;;5.17;1.00;;;14.80;99.90;;;;;;5056797;28;20255;-43
2022/09/15 07:38:42;;;;;;;4.70;1.00;;;14.80;99.90;;;;;;5057717;28;20251;-45
2022/09/15 07:41:11;;;;;;;3.83;1.10;;;14.90;99.90;;;;;;5052454;28;20202;-43
2022/09/15 07:43:38;;;;;;;5.80;1.37;;;14.90;99.90;;;;;;5036114;28;20207;-45
2022/09/15 07:46:05;;;;;;;5.57;1.10;;;15.00;99.90;;;;;;5043698;28;20976;-44
2022/09/15 07:48:32;;;;;;;2.67;1.00;;;15.00;99.90;;;;;;5044284;28;20203;-46
2022/09/15 07:50:59;;;;;;;6.40;1.10;;;15.10;99.90;;;;;;5041956;28;20203;-44
2022/09/15 07:53:28;;;;;;;5.27;1.03;;;15.10;99.90;;;;;;5041226;28;20238;-43
2022/09/15 07:55:56;;;;;;;6.73;1.20;;;15.10;99.90;;;;;;5060299;28;20919;-43
2022/09/15 07:58:24;;;;;;;5.10;1.20;;;15.20;99.90;;;;;;5036900;28;20220;-44
2022/09/15 08:00:51;;;;;;;4.80;1.00;;;15.30;99.90;;;;;;5047011;28;20849;-46
2022/09/15 08:03:17;;;;;;;5.43;1.10;;;15.30;99.90;;;;;;5044476;28;20192;-42
2022/09/15 08:05:44;;;;;;;5.37;1.13;;;15.30;99.90;;;;;;5044663;28;20218;-46
2022/09/15 08:08:11;;;;;;;4.87;1.10;;;15.40;99.90;;;;;;5057608;28;20207;-43
2022/09/15 08:10:39;;;;;;;4.03;1.23;;;15.50;99.90;;;;;;5056825;28;20207;-46
2022/09/15 08:13:07;;;;;;;3.20;1.20;;;15.50;99.90;;;;;;5063192;28;20198;-43
2022/09/15 08:15:35;;;;;;;7.23;1.03;;;15.50;99.90;;;;;;5032607;28;20696;-46
2022/09/15 08:18:02;;;;;;;4.13;1.10;;;15.60;99.90;;;;;;5044889;28;20215;-45
2022/09/15 08:20:30;;;;;;;4.67;1.10;;;15.70;99.90;;;;;;5040683;28;20564;-45
2022/09/15 08:22:57;;;;;;;3.63;1.00;;;15.70;99.90;;;;;;5037339;28;20199;-46
2022/09/15 08:25:24;;;;;;;5.67;1.40;;;15.80;99.90;;;;;;5046181;28;20232;-45
2022/09/15 08:27:52;;;;;;;6.57;1.00;;;15.80;99.90;;;;;;5038149;28;20703;-44
2022/09/15 08:30:21;;;;;;;5.67;1.00;;;15.80;99.90;;;;;;5027567;28;20212;-43
2022/09/15 08:32:48;;;;;;;8.07;1.40;;;15.80;99.90;;;;;;5043683;28;20282;-47
2022/09/15 08:35:16;;;;;;;3.23;1.10;;;15.80;99.90;;;;;;5036832;28;20215;-48
2022/09/15 08:37:43;;;;;;;4.67;1.53;;;15.90;99.90;;;;;;5062014;28;20689;-44
2022/09/15 08:40:16;;;;;;;3.57;1.17;;;15.90;99.90;;;;;;5038900;28;20203;-47
2022/09/15 08:42:44;;;;;;;4.40;0.80;;;16.00;99.90;;;;;;5055602;28;20199;-46
2022/09/15 08:45:21;;;;;;;6.60;1.00;;;16.10;99.90;;;;;;5038240;28;20231;-48
2022/09/15 08:47:50;;;;;;;2.93;1.10;;;16.20;99.90;;;;;;5044924;28;20223;-44
2022/09/15 08:50:26;;;;;;;1.73;0.80;;;16.30;99.90;;;;;;5044766;28;20334;-49
2022/09/15 08:52:58;;;;;;;4.43;0.80;;;16.30;99.90;;;;;;5033738;28;20199;-46
2022/09/15 08:55:35;;;;;;;3.10;0.90;;;16.30;99.90;;;;;;5030483;28;20215;-45
2022/09/15 08:58:03;;;;;;;2.27;0.90;;;16.30;99.90;;;;;;5044072;28;20309;-45
2022/09/15 09:00:32;;;;;;;3.10;0.63;;;16.40;99.90;;;;;;5026250;28;20207;-47
2022/09/15 09:03:13;;;;;;;2.07;1.00;;;16.50;99.90;;;;;;5040711;28;20191;-50
2022/09/15 09:05:53;;;;;;;2.63;0.97;;;16.60;99.90;;;;;;5039627;28;20215;-52
2022/09/15 09:08:40;;;;;;;2.80;1.00;;;16.60;99.90;;;;;;5039112;28;20217;-54
2022/09/15 09:11:15;;;;;;;2.10;0.77;;;16.70;99.90;;;;;;5044592;28;20207;-49
2022/09/15 09:13:47;;;;;;;4.57;0.90;;;16.90;99.90;;;;;;5048013;28;20206;-54
2022/09/15 09:16:41;;;;;;;4.77;1.17;;;16.90;99.90;;;;;;5024573;28;20203;-54
2022/09/15 09:19:28;;;;;;;2.67;1.43;;;16.70;99.90;;;;;;5038803;28;20286;-51
2022/09/15 09:21:59;;;;;;;6.30;0.90;;;16.60;99.90;;;;;;5038960;28;20207;-53
2022/09/15 09:24:34;;;;;;;5.23;1.50;;;16.50;99.90;;;;;;5031864;28;20230;-52
2022/09/15 09:27:01;;;;;;;6.03;1.03;;;16.30;99.90;;;;;;5048732;28;20210;-55
2022/09/15 09:29:33;;;;;;;3.83;0.73;;;16.00;99.90;;;;;;5046941;28;20196;-54
2022/09/15 09:32:03;;;;;;;6.90;1.43;;;15.90;99.90;;;;;;5025524;28;20211;-54
2022/09/15 09:34:37;;;;;;;5.70;1.80;;;15.90;99.90;;;;;;5043526;28;20223;-49
2022/09/15 09:37:10;;;;;;;4.87;1.43;;;15.90;99.90;;;;;;5040075;28;20192;-55
2022/09/15 09:39:37;;;;;;;5.60;1.13;;;15.90;99.90;;;;;;5056663;28;20206;-51
2022/09/15 09:42:05;;;;;;;7.20;1.07;;;15.90;99.90;;;;;;5048538;28;20610;-54
2022/09/15 09:44:34;;;;;;;4.60;1.27;;;15.90;99.90;;;;;;5040913;28;20230;-53
2022/09/15 09:47:02;;;;;;;5.37;1.00;;;15.70;99.90;;;;;;5040032;28;20221;-55
2022/09/15 09:49:34;;;;;;;3.60;0.83;;;15.60;99.90;;;;;;5029895;28;20200;-52
2022/09/15 09:52:02;;;;;;;1.83;0.83;;;15.60;99.90;;;;;;5043789;28;20199;-52
2022/09/15 09:54:30;;;;;;;3.80;1.00;;;15.60;99.90;;;;;;5038394;28;20222;-54
2022/09/15 09:57:18;;;;;;;4.13;0.73;;;15.50;99.90;;;;;;5041847;28;20202;-54
2022/09/15 09:59:46;;;;;;;4.97;1.07;;;15.60;99.90;;;;;;5054937;28;20213;-55
2022/09/15 10:02:19;;;;;;;3.53;1.23;;;15.60;99.90;;;;;;5030147;28;20211;-55
2022/09/15 10:04:49;;;;;;;2.17;0.80;;;15.60;99.90;;;;;;5033090;28;20225;-53
2022/09/15 10:07:18;;;;;;;9.40;0.80;;;15.70;99.90;;;;;;5040114;28;20231;-52
2022/09/15 10:09:52;;;;;;;6.03;1.13;;;15.90;99.90;;;;;;5040494;28;20198;-51
2022/09/15 10:12:23;;;;;;;2.90;0.80;;;15.90;99.90;;;;;;5040061;28;20203;-55
2022/09/15 10:14:52;;;;;;;3.23;0.80;;;16.00;99.90;;;;;;5036300;28;20233;-52
2022/09/15 10:17:23;;;;;;;5.03;0.97;;;16.10;99.90;;;;;;5050805;28;20203;-54
2022/09/15 10:19:52;;;;;;;4.37;0.87;;;16.20;99.90;;;;;;5035345;28;20206;-50
2022/09/15 10:22:23;;;;;;;2.03;0.80;;;16.30;99.90;;;;;;5043068;28;20241;-51
2022/09/15 10:24:52;;;;;;;4.23;0.83;;;16.40;99.90;;;;;;5043278;28;20215;-47
2022/09/15 10:27:27;;;;;;;2.60;1.10;;;16.40;99.90;;;;;;5052587;28;20275;-53
2022/09/15 10:29:54;;;;;;;3.70;1.00;;;16.50;99.90;;;;;;5058454;28;20210;-53
2022/09/15 10:32:27;;;;;;;2.60;0.90;;;16.50;99.90;;;;;;5042311;28;20191;-49
2022/09/15 10:35:04;;;;;;;5.43;0.90;;;16.70;99.90;;;;;;5019456;28;20588;-51
2022/09/15 10:37:42;;;;;;;1.73;0.63;;;16.80;99.90;;;;;;5042018;28;20707;-53
2022/09/15 10:40:31;;;;;;;3.50;0.50;;;16.90;99.90;;;;;;5039110;28;21587;-51
2022/09/15 10:43:06;;;;;;;1.53;0.60;;;16.90;99.90;;;;;;5039140;28;20495;-51
2022/09/15 10:45:38;;;;;;;1.90;0.70;;;17.00;99.90;;;;;;5045272;28;20225;-53
2022/09/15 10:48:29;;;;;;;3.23;0.80;;;17.10;99.90;;;;;;5061838;28;20931;-52
2022/09/15 10:51:01;;;;;;;4.13;0.80;;;17.10;99.90;;;;;;5034234;28;20195;-53
2022/09/15 10:53:49;;;;;;;2.67;0.40;;;17.10;99.90;;;;;;5041178;28;20214;-50
2022/09/15 10:56:24;;;;;;;2.10;0.80;;;17.20;99.90;;;;;;5043016;28;20359;-54
2022/09/15 10:59:02;;;;;;;3.90;0.70;;;17.20;99.90;;;;;;5038825;28;20213;-55
2022/09/15 11:01:51;;;;;;;3.73;0.77;;;17.30;99.90;;;;;;5053214;28;20229;-52
2022/09/15 11:04:40;;;;;;;1.07;0.50;;;17.20;99.90;;;;;;5053187;28;20227;-52
2022/09/15 11:07:15;;;;;;;1.20;0.43;;;17.20;99.90;;;;;;5035092;28;21183;-50
2022/09/15 11:09:49;;;;;;;2.70;0.50;;;17.10;99.90;;;;;;5039201;28;20222;-51
2022/09/15 11:12:29;;;;;;;1.63;0.67;;;17.00;99.90;;;;;;5040485;28;20203;-51
2022/09/15 11:15:14;;;;;;;2.47;0.60;;;17.00;99.90;;;;;;5038447;28;20940;-55
2022/09/15 11:17:55;;;;;;;3.70;0.77;;;16.70;99.90;;;;;;5041615;28;20916;-55
2022/09/15 11:20:50;;;;;;;2.17;0.83;;;16.20;99.90;;;;;;5026449;28;20262;-51
2022/09/15 11:23:21;;;;;;;5.77;0.70;;;15.50;99.90;;;;;;5038177;28;20203;-54
2022/09/15 11:25:52;;;;;;;2.13;0.73;;;15.10;99.90;;;;;;5033316;28;20305;-48
2022/09/15 11:28:24;;;;;;;4.60;0.93;;;14.80;99.90;;;;;;5043738;28;20195;-52
2022/09/15 11:31:00;;;;;;;2.20;0.70;;;14.80;99.90;;;;;;5054092;28;20198;-50
2022/09/15 11:33:32;;;;;;;3.57;0.73;;;14.80;99.90;;;;;;5041101;28;20876;-53
2022/09/15 11:36:06;;;;;;;1.43;0.60;;;14.80;99.90;;;;;;5038651;28;20631;-51
2022/09/15 11:38:41;;;;;;;2.80;0.90;;;14.90;99.90;;;;;;5029016;28;20205;-51
2022/09/15 11:41:22;;;;;;;5.80;1.30;;;14.90;99.90;;;;;;5038235;28;20627;-54
2022/09/15 11:44:03;;;;;;;4.00;1.00;;;15.00;99.90;;;;;;5040637;28;20589;-54
2022/09/15 11:46:38;;;;;;;3.77;0.80;;;15.20;99.90;;;;;;5046671;28;20221;-48
2022/09/15 11:49:09;;;;;;;5.33;1.30;;;15.30;99.90;;;;;;5039632;28;20198;-52
2022/09/15 11:51:44;;;;;;;3.97;0.70;;;15.50;99.90;;;;;;5028533;28;21267;-53
2022/09/15 11:54:17;;;;;;;3.47;0.80;;;15.70;99.90;;;;;;5034725;28;20225;-52
2022/09/15 11:56:46;;;;;;;2.53;0.63;;;15.90;99.90;;;;;;5034623;28;20875;-55
2022/09/15 11:59:20;;;;;;;2.77;1.00;;;16.00;99.90;;;;;;5035139;28;20207;-53
2022/09/15 12:01:55;;;;;;;4.80;1.10;;;16.20;99.90;;;;;;5024748;28;20218;-53
2022/09/15 12:04:28;;;;;;;2.33;0.67;;;16.30;99.90;;;;;;5038055;28;20219;-54
2022/09/15 12:07:01;;;;;;;4.63;1.20;;;16.30;99.90;;;;;;5029279;28;20222;-55
2022/09/15 12:09:28;;;;;;;4.50;0.70;;;16.40;99.90;;;;;;5039813;28;20954;-55
2022/09/15 12:11:58;;;;;;;1.10;0.80;;;16.50;99.90;;;;;;5039931;28;20680;-53
2022/09/15 12:14:30;;;;;;;4.30;1.00;;;16.60;99.90;;;;;;5033847;28;20227;-53
2022/09/15 12:16:58;;;;;;;3.63;0.70;;;16.70;99.90;;;;;;5039265;28;20664;-53
2022/09/15 12:19:41;;;;;;;5.23;0.90;;;16.80;99.90;;;;;;5038555;28;20206;-50
2022/09/15 12:22:17;;;;;;;3.50;0.83;;;16.90;99.90;;;;;;5037467;28;20281;-52
2022/09/15 12:24:49;;;;;;;4.20;0.80;;;17.00;99.90;;;;;;5033205;28;20221;-51
2022/09/15 12:27:18;;;;;;;4.50;0.70;;;17.10;99.90;;;;;;5035101;28;20298;-53
2022/09/15 12:29:49;;;;;;;2.93;0.60;;;17.10;99.90;;;;;;5041415;28;20195;-53
2022/09/15 12:32:25;;;;;;;1.67;0.60;;;17.20;99.90;;;;;;5033572;28;20945;-54
2022/09/15 12:34:58;;;;;;;2.53;0.67;;;17.30;99.90;;;;;;5041442;28;20565;-51
2022/09/15 12:37:30;;;;;;;3.80;0.93;;;17.40;99.90;;;;;;5039779;28;20183;-48
2022/09/15 12:39:57;;;;;;;2.80;0.80;;;17.50;99.90;;;;;;5026316;28;20214;-47
2022/09/15 12:42:26;;;;;;;2.83;0.70;;;17.70;99.90;;;;;;5038451;28;20282;-44
2022/09/15 12:44:56;;;;;;;2.93;0.90;;;17.90;99.90;;;;;;5035641;28;20219;-46
2022/09/15 12:47:31;;;;;;;1.53;0.73;;;18.00;99.90;;;;;;5039614;28;20218;-47
2022/09/15 12:50:05;;;;;;;2.53;0.80;;;18.20;99.90;;;;;;5060922;28;20925;-45
2022/09/15 12:52:43;;;;;;;2.40;0.60;;;18.20;99.90;;;;;;5034916;28;20206;-51
2022/09/15 12:55:18;;;;;;;4.70;0.83;;;18.00;99.90;;;;;;5028337;28;20225;-45
2022/09/15 12:57:51;;;;;;;2.87;0.90;;;17.80;99.90;;;;;;5027235;28;20229;-52
2022/09/15 13:00:35;;;;;;;1.33;0.53;;;17.50;99.90;;;;;;5045964;28;20206;-45
2022/09/15 13:03:04;;;;;;;3.30;0.83;;;17.30;99.90;;;;;;5040245;28;20213;-47
2022/09/15 13:06:16;;;;;;;1.17;0.50;;;17.20;99.90;;;;;;5042313;28;20239;-49
2022/09/15 13:08:54;;;;;;;2.10;0.70;;;17.00;99.90;;;;;;5038045;28;20327;-49